Time;durP1;ratioP1;P1;durP2;ratioP2;P2;SDS_P1;SDS_P2;PMS_P1;PMS_P2;Temp;Humidity;BMP_temperature;BMP_pressure;BME280_temperature;BME280_humidity;BME280_pressure;Samples;Min_cycle;Max_cycle;Signal;HPM_P1;HPM_P2
2022/03/15 00:00:52;;;;;;;54.72;40.53;;;25.30;99.90;;;;;;5087707;28;20040;-63
2022/03/15 00:03:19;;;;;;;49.78;37.88;;;25.40;99.90;;;;;;5072218;28;20024;-62
2022/03/15 00:05:46;;;;;;;53.92;41.42;;;25.40;99.90;;;;;;5074370;28;20032;-62
2022/03/15 00:08:12;;;;;;;49.40;35.95;;;25.40;99.90;;;;;;5073324;28;20028;-62
2022/03/15 00:10:39;;;;;;;46.47;33.83;;;25.50;99.90;;;;;;5075073;28;20063;-63
2022/03/15 00:13:07;;;;;;;52.92;32.80;;;25.50;99.90;;;;;;5072248;28;20016;-62
2022/03/15 00:15:36;;;;;;;37.42;28.38;;;25.50;99.90;;;;;;5054403;28;20036;-62
2022/03/15 00:18:03;;;;;;;36.08;26.45;;;25.50;99.90;;;;;;5054108;28;20051;-62
2022/03/15 00:20:30;;;;;;;31.35;25.80;;;25.60;99.90;;;;;;5088403;28;20032;-62
2022/03/15 00:22:59;;;;;;;78.97;60.55;;;25.60;99.90;;;;;;5074972;28;20024;-62
2022/03/15 00:25:26;;;;;;;33.92;29.30;;;25.70;99.90;;;;;;5071043;28;20040;-62
2022/03/15 00:27:53;;;;;;;63.17;47.45;;;25.70;99.90;;;;;;5073721;28;20041;-62
2022/03/15 00:30:21;;;;;;;51.92;41.80;;;25.70;99.90;;;;;;5074232;28;20032;-62
2022/03/15 00:32:49;;;;;;;40.17;32.17;;;25.70;99.90;;;;;;5073613;28;20495;-62
2022/03/15 00:35:18;;;;;;;38.28;29.42;;;25.70;99.90;;;;;;5073186;28;20163;-62
2022/03/15 00:37:46;;;;;;;38.83;28.90;;;25.70;99.90;;;;;;5073726;28;20029;-62
2022/03/15 00:40:14;;;;;;;34.20;27.77;;;25.80;99.90;;;;;;5073630;28;20047;-62
2022/03/15 00:42:47;;;;;;;29.17;24.25;;;25.80;99.90;;;;;;5073623;28;20035;-62
2022/03/15 00:45:14;;;;;;;42.38;29.95;;;25.70;99.90;;;;;;5073700;28;20455;-62
2022/03/15 00:47:41;;;;;;;39.53;31.92;;;25.80;99.90;;;;;;5073545;28;20517;-62
2022/03/15 00:50:08;;;;;;;44.08;33.92;;;25.80;99.90;;;;;;5073017;28;20040;-62
2022/03/15 00:52:35;;;;;;;45.08;34.50;;;25.90;99.90;;;;;;5067451;28;20032;-62
2022/03/15 00:55:02;;;;;;;47.00;37.20;;;25.80;99.90;;;;;;5073197;28;20033;-62
2022/03/15 00:57:28;;;;;;;42.58;35.20;;;25.80;99.90;;;;;;5070468;28;20024;-62
2022/03/15 00:59:55;;;;;;;41.88;34.47;;;25.80;99.90;;;;;;5071015;28;20119;-61
2022/03/15 01:02:22;;;;;;;45.05;34.08;;;25.90;99.90;;;;;;5053501;28;20481;-61
2022/03/15 01:04:49;;;;;;;37.22;30.20;;;26.00;99.90;;;;;;5070445;28;20425;-61
2022/03/15 01:07:15;;;;;;;42.95;33.90;;;26.00;99.90;;;;;;5073721;28;20077;-61
2022/03/15 01:09:43;;;;;;;40.13;34.35;;;26.00;99.90;;;;;;5073019;28;20028;-62
2022/03/15 01:12:11;;;;;;;39.53;33.90;;;26.00;99.90;;;;;;5073675;28;20043;-62
2022/03/15 01:14:38;;;;;;;50.20;37.22;;;26.10;99.90;;;;;;5072966;28;20107;-62
2022/03/15 01:17:05;;;;;;;50.97;38.70;;;26.10;99.90;;;;;;5073375;28;20036;-61
2022/03/15 01:19:32;;;;;;;50.47;36.15;;;26.10;99.90;;;;;;5073272;28;20039;-62
2022/03/15 01:21:59;;;;;;;38.25;31.85;;;26.20;99.90;;;;;;5073373;28;20032;-61
2022/03/15 01:24:26;;;;;;;36.65;31.60;;;26.20;99.90;;;;;;5073096;28;20473;-60
2022/03/15 01:26:54;;;;;;;35.92;27.52;;;26.40;99.90;;;;;;5073092;28;20110;-61
2022/03/15 01:29:22;;;;;;;37.25;26.98;;;26.50;99.90;;;;;;5073140;28;20104;-60
2022/03/15 01:31:49;;;;;;;30.90;24.30;;;26.60;99.90;;;;;;5072720;28;20021;-61
2022/03/15 01:34:16;;;;;;;35.10;25.35;;;26.60;99.90;;;;;;5072826;28;20414;-61
2022/03/15 01:36:43;;;;;;;33.40;23.88;;;26.60;99.90;;;;;;5071800;28;20017;-61
2022/03/15 01:39:10;;;;;;;30.48;24.45;;;26.70;99.90;;;;;;5076633;28;20055;-60
2022/03/15 01:41:39;;;;;;;34.50;25.35;;;26.70;99.90;;;;;;5076735;28;20028;-61
2022/03/15 01:44:19;;;;;;;37.72;26.08;;;26.70;99.90;;;;;;5076604;28;20048;-61
2022/03/15 01:46:47;;;;;;;38.55;26.45;;;26.80;99.90;;;;;;5076899;28;20092;-61
2022/03/15 01:49:14;;;;;;;45.45;26.95;;;26.90;99.90;;;;;;5076787;28;20035;-61
2022/03/15 01:51:41;;;;;;;54.90;27.02;;;27.00;99.90;;;;;;5076144;28;20208;-60
2022/03/15 01:54:10;;;;;;;41.95;26.23;;;27.00;99.90;;;;;;5076367;28;20153;-61
2022/03/15 01:56:40;;;;;;;29.02;22.08;;;27.10;99.90;;;;;;5076354;28;20025;-61
2022/03/15 01:59:11;;;;;;;32.97;24.48;;;27.10;99.90;;;;;;5076823;28;20153;-61
2022/03/15 02:01:40;;;;;;;27.83;19.60;;;27.20;99.90;;;;;;5075982;28;20029;-60
2022/03/15 02:04:08;;;;;;;25.17;19.83;;;27.20;99.90;;;;;;5073758;28;20024;-61
2022/03/15 02:06:36;;;;;;;27.55;18.77;;;27.20;99.90;;;;;;5076212;28;20358;-60
2022/03/15 02:09:14;;;;;;;25.15;18.33;;;27.30;99.90;;;;;;5076116;28;20008;-61
2022/03/15 02:11:43;;;;;;;24.73;18.63;;;27.40;99.90;;;;;;5075699;28;20420;-61
2022/03/15 02:14:10;;;;;;;57.95;39.92;;;27.40;99.90;;;;;;5067212;28;20087;-60
2022/03/15 02:16:36;;;;;;;28.73;18.75;;;27.50;99.90;;;;;;5075853;28;20032;-61
2022/03/15 02:19:04;;;;;;;22.85;17.13;;;27.60;99.90;;;;;;5072550;28;20035;-61
2022/03/15 02:21:31;;;;;;;19.60;15.85;;;27.60;99.90;;;;;;5076321;28;20421;-61
2022/03/15 02:23:58;;;;;;;17.58;12.82;;;27.70;99.90;;;;;;5075612;28;20028;-61
2022/03/15 02:26:25;;;;;;;19.00;12.55;;;27.70;99.90;;;;;;5075224;28;20101;-62
2022/03/15 02:28:52;;;;;;;15.95;12.70;;;27.70;99.90;;;;;;5071698;28;20036;-62
2022/03/15 02:31:20;;;;;;;27.30;19.63;;;27.80;99.90;;;;;;5070731;28;20462;-62
2022/03/15 02:33:47;;;;;;;18.63;12.57;;;27.80;99.90;;;;;;5071188;28;20025;-62
2022/03/15 02:36:16;;;;;;;18.02;12.27;;;27.90;99.90;;;;;;5073423;28;20029;-62
2022/03/15 02:38:43;;;;;;;15.38;10.90;;;27.90;99.90;;;;;;5071794;28;20389;-62
2022/03/15 02:41:10;;;;;;;17.80;12.00;;;27.90;99.90;;;;;;5067969;28;20427;-61
2022/03/15 02:43:37;;;;;;;18.15;13.10;;;28.00;99.90;;;;;;5061894;28;20099;-61
2022/03/15 02:46:04;;;;;;;29.42;15.05;;;27.90;99.90;;;;;;5068901;28;20033;-61
2022/03/15 02:48:31;;;;;;;19.45;13.48;;;27.90;99.90;;;;;;5068807;28;20033;-61
2022/03/15 02:51:00;;;;;;;22.23;12.40;;;27.90;99.90;;;;;;5069388;28;20025;-61
2022/03/15 02:53:28;;;;;;;30.17;13.23;;;28.00;99.90;;;;;;5068843;28;20017;-61
2022/03/15 02:55:55;;;;;;;32.55;15.32;;;28.00;99.90;;;;;;5067212;28;20024;-62
2022/03/15 02:58:21;;;;;;;14.93;11.73;;;28.00;99.90;;;;;;5067282;28;20029;-62
2022/03/15 03:00:48;;;;;;;20.30;10.40;;;28.00;99.90;;;;;;5068981;28;20116;-61
2022/03/15 03:03:15;;;;;;;25.02;11.15;;;28.00;99.90;;;;;;5067295;28;20029;-61
2022/03/15 03:05:42;;;;;;;18.00;11.07;;;28.10;99.90;;;;;;5067921;28;20047;-62
2022/03/15 03:08:10;;;;;;;13.27;9.48;;;28.10;99.90;;;;;;5066552;28;20024;-62
2022/03/15 03:10:37;;;;;;;18.55;10.48;;;28.10;99.90;;;;;;5081500;28;20380;-62
2022/03/15 03:13:04;;;;;;;15.93;10.55;;;28.10;99.90;;;;;;5066673;28;20025;-62
2022/03/15 03:15:32;;;;;;;18.95;11.23;;;28.10;99.90;;;;;;5072783;28;20032;-63
2022/03/15 03:17:58;;;;;;;20.58;9.13;;;28.20;99.90;;;;;;5074165;28;20028;-62
2022/03/15 03:20:27;;;;;;;20.00;8.40;;;28.20;99.90;;;;;;5074739;28;20041;-62
2022/03/15 03:22:54;;;;;;;20.85;8.07;;;28.20;99.90;;;;;;5072546;28;20029;-62
2022/03/15 03:25:21;;;;;;;36.38;13.82;;;28.30;99.90;;;;;;5074824;28;20036;-61
2022/03/15 03:27:48;;;;;;;32.22;9.50;;;28.40;99.90;;;;;;5060847;28;20040;-61
2022/03/15 03:30:15;;;;;;;12.63;5.97;;;28.40;99.90;;;;;;5074530;28;20036;-61
2022/03/15 03:32:43;;;;;;;20.58;10.13;;;28.50;99.90;;;;;;5074842;28;20023;-61
2022/03/15 03:35:09;;;;;;;11.63;6.72;;;28.60;99.90;;;;;;5073243;28;20029;-61
2022/03/15 03:37:37;;;;;;;12.00;6.50;;;28.60;99.90;;;;;;5074077;28;20032;-62
2022/03/15 03:40:07;;;;;;;19.60;10.43;;;28.60;99.90;;;;;;5074193;28;20092;-61
2022/03/15 03:42:35;;;;;;;16.10;8.82;;;28.70;99.90;;;;;;5067429;28;20496;-61
2022/03/15 03:45:03;;;;;;;13.52;7.47;;;28.70;99.90;;;;;;5073056;28;20150;-56
2022/03/15 03:47:30;;;;;;;24.10;9.60;;;28.70;99.90;;;;;;5073075;28;20477;-58
2022/03/15 03:49:57;;;;;;;34.30;19.58;;;28.80;99.90;;;;;;5072873;28;20103;-61
2022/03/15 03:52:24;;;;;;;9.10;4.45;;;28.90;99.90;;;;;;5073747;28;20020;-62
2022/03/15 03:54:50;;;;;;;5.47;3.05;;;29.00;99.90;;;;;;5073971;28;20032;-61
2022/03/15 03:57:17;;;;;;;8.73;4.63;;;29.10;99.90;;;;;;5073820;28;20036;-60
2022/03/15 03:59:44;;;;;;;11.60;6.70;;;29.20;99.90;;;;;;5073568;28;20040;-60
2022/03/15 04:02:11;;;;;;;8.40;3.72;;;29.30;99.90;;;;;;5072900;28;20108;-61
2022/03/15 04:04:38;;;;;;;9.57;3.47;;;29.30;99.90;;;;;;5073094;28;20029;-61
2022/03/15 04:07:07;;;;;;;7.20;5.20;;;29.30;99.90;;;;;;5074115;28;20481;-61
2022/03/15 04:09:34;;;;;;;11.10;7.47;;;29.40;99.90;;;;;;5069305;28;20037;-61
2022/03/15 04:12:01;;;;;;;10.18;7.40;;;29.40;99.90;;;;;;5073282;28;20031;-61
2022/03/15 04:14:28;;;;;;;6.65;4.65;;;29.50;99.90;;;;;;5072499;28;20028;-61
2022/03/15 04:16:55;;;;;;;5.35;3.75;;;29.50;99.90;;;;;;5072312;28;20103;-60
2022/03/15 04:19:22;;;;;;;4.80;3.22;;;29.60;99.90;;;;;;5067806;28;20032;-61
2022/03/15 04:21:49;;;;;;;5.45;3.15;;;29.80;99.90;;;;;;5064376;28;20043;-61
2022/03/15 04:24:17;;;;;;;7.18;3.67;;;29.90;99.90;;;;;;5064954;28;20033;-66
2022/03/15 04:26:45;;;;;;;8.00;4.57;;;30.00;99.90;;;;;;5070002;28;20036;-62
2022/03/15 04:29:12;;;;;;;4.70;3.28;;;30.10;99.90;;;;;;5070193;28;20020;-62
2022/03/15 04:31:39;;;;;;;7.82;3.85;;;30.10;99.90;;;;;;5072882;28;20483;-61
2022/03/15 04:34:06;;;;;;;6.70;3.50;;;30.10;99.90;;;;;;5073243;28;20036;-61
2022/03/15 04:36:35;;;;;;;3.30;2.67;;;30.20;99.90;;;;;;5073381;28;20035;-63
2022/03/15 04:39:03;;;;;;;19.88;14.60;;;30.30;99.90;;;;;;5075935;28;20024;-62
2022/03/15 04:41:30;;;;;;;9.65;7.00;;;30.30;99.90;;;;;;5072327;28;20029;-64
2022/03/15 04:43:56;;;;;;;7.78;4.65;;;30.20;99.90;;;;;;5070831;28;20036;-64
2022/03/15 04:46:23;;;;;;;6.93;4.15;;;30.30;99.90;;;;;;5069888;28;20481;-63
2022/03/15 04:48:51;;;;;;;7.47;4.45;;;30.30;99.90;;;;;;5071321;28;20492;-63
2022/03/15 04:51:18;;;;;;;22.50;5.78;;;30.40;99.90;;;;;;5069035;28;20586;-63
2022/03/15 04:53:44;;;;;;;8.32;4.30;;;30.40;99.90;;;;;;5071638;28;20029;-62
2022/03/15 04:56:11;;;;;;;6.90;4.45;;;30.40;99.90;;;;;;5071192;28;20036;-63
2022/03/15 04:58:38;;;;;;;7.60;4.80;;;30.40;99.90;;;;;;5071957;28;20025;-63
2022/03/15 05:01:05;;;;;;;6.00;4.90;;;30.50;99.90;;;;;;5071744;28;20024;-64
2022/03/15 05:03:33;;;;;;;11.10;6.03;;;30.50;99.90;;;;;;5073355;28;20091;-64
2022/03/15 05:06:00;;;;;;;11.75;7.90;;;30.50;99.90;;;;;;5072383;28;20521;-63
2022/03/15 05:08:27;;;;;;;9.55;5.90;;;30.50;99.90;;;;;;5073205;28;20025;-63
2022/03/15 05:13:43;;;;;;;10.68;6.28;;;30.50;99.90;;;;;;5076229;28;20032;-63
2022/03/15 05:16:17;;;;;;;11.98;8.15;;;30.50;99.90;;;;;;5063107;28;20032;-63
2022/03/15 05:18:45;;;;;;;9.32;6.43;;;30.50;99.90;;;;;;5074880;28;20044;-63
2022/03/15 05:21:14;;;;;;;8.43;5.93;;;30.60;99.90;;;;;;5076282;28;20028;-62
2022/03/15 05:23:42;;;;;;;9.50;6.22;;;30.60;99.90;;;;;;5076334;28;20040;-63
2022/03/15 05:26:09;;;;;;;9.40;8.05;;;30.60;99.90;;;;;;5076015;28;20441;-63
2022/03/15 05:28:35;;;;;;;10.10;8.10;;;30.70;99.90;;;;;;5076516;28;20032;-67
2022/03/15 05:31:02;;;;;;;11.35;8.93;;;30.70;99.90;;;;;;5072279;28;20476;-63
2022/03/15 05:33:29;;;;;;;14.38;9.82;;;30.80;99.90;;;;;;5076441;28;20469;-63
2022/03/15 05:35:56;;;;;;;10.82;9.18;;;31.20;99.90;;;;;;5076929;28;20028;-63
2022/03/15 05:38:23;;;;;;;12.85;10.18;;;31.20;99.90;;;;;;5076572;28;20175;-63
2022/03/15 05:40:49;;;;;;;12.05;9.38;;;31.40;99.90;;;;;;5076549;28;20473;-63
2022/03/15 05:43:18;;;;;;;12.23;9.18;;;31.40;99.90;;;;;;5075812;28;20354;-62
2022/03/15 05:45:46;;;;;;;13.27;8.38;;;31.50;99.90;;;;;;5076309;28;20120;-63
2022/03/15 05:48:13;;;;;;;13.80;9.50;;;31.50;99.90;;;;;;5072336;28;20025;-62
2022/03/15 05:50:40;;;;;;;11.82;9.30;;;31.50;99.90;;;;;;5065435;28;20095;-62
2022/03/15 05:53:08;;;;;;;13.88;10.40;;;31.40;99.90;;;;;;5076341;28;20440;-62
2022/03/15 05:55:38;;;;;;;15.38;11.80;;;31.40;99.90;;;;;;5067673;28;20074;-62
2022/03/15 05:58:04;;;;;;;12.38;10.10;;;31.40;99.90;;;;;;5077425;28;20028;-62
2022/03/15 06:00:32;;;;;;;28.20;15.43;;;31.40;99.90;;;;;;5075942;28;20496;-62
2022/03/15 06:02:59;;;;;;;20.17;13.85;;;31.40;99.90;;;;;;5058495;28;20029;-62
2022/03/15 06:05:27;;;;;;;16.52;10.20;;;31.40;99.90;;;;;;5056499;28;20029;-61
2022/03/15 06:07:54;;;;;;;16.23;10.85;;;31.30;99.90;;;;;;5071230;28;20374;-62
2022/03/15 06:10:23;;;;;;;11.05;9.27;;;31.30;99.90;;;;;;5075234;28;20032;-62
2022/03/15 06:12:51;;;;;;;11.30;9.90;;;31.40;99.90;;;;;;5069046;28;20044;-62
2022/03/15 06:15:19;;;;;;;12.73;9.05;;;31.40;99.90;;;;;;5075678;28;20039;-62
2022/03/15 06:17:48;;;;;;;10.00;8.82;;;31.30;99.90;;;;;;5075965;28;20063;-62
2022/03/15 06:20:18;;;;;;;11.55;9.57;;;31.30;99.90;;;;;;5073817;28;20031;-63
2022/03/15 06:22:48;;;;;;;17.65;10.25;;;31.20;99.90;;;;;;5074653;28;20158;-63
2022/03/15 06:25:15;;;;;;;14.00;11.70;;;31.20;99.90;;;;;;5071615;28;20400;-60
2022/03/15 06:27:43;;;;;;;13.18;11.05;;;31.30;99.90;;;;;;5075163;28;20474;-61
2022/03/15 06:30:12;;;;;;;13.63;10.80;;;31.20;99.90;;;;;;5074523;28;20024;-62
2022/03/15 06:32:39;;;;;;;15.82;11.65;;;31.20;99.90;;;;;;5072958;28;20021;-61
2022/03/15 06:35:07;;;;;;;14.57;12.13;;;31.20;99.90;;;;;;5075387;28;20496;-61
2022/03/15 06:37:39;;;;;;;33.67;25.80;;;31.20;99.90;;;;;;5075916;28;20404;-62
2022/03/15 06:40:07;;;;;;;27.77;20.92;;;31.20;99.90;;;;;;5075300;28;20024;-62
2022/03/15 06:42:34;;;;;;;26.50;18.58;;;31.10;99.90;;;;;;5075494;28;20384;-63
2022/03/15 06:45:01;;;;;;;20.75;16.85;;;31.10;99.90;;;;;;5074851;28;20092;-63
2022/03/15 06:47:28;;;;;;;20.75;15.07;;;31.10;99.90;;;;;;5074880;28;20024;-62
2022/03/15 06:49:54;;;;;;;20.08;14.98;;;31.10;99.90;;;;;;5075025;28;20078;-62
2022/03/15 06:52:21;;;;;;;18.23;15.60;;;31.10;99.90;;;;;;5074208;28;20059;-61
2022/03/15 06:54:48;;;;;;;18.02;14.02;;;31.20;99.90;;;;;;5074308;28;20036;-61
2022/03/15 06:57:14;;;;;;;25.23;15.25;;;31.10;99.90;;;;;;5074761;28;20036;-61
2022/03/15 06:59:41;;;;;;;24.98;15.93;;;31.10;99.90;;;;;;5075443;28;20073;-62
2022/03/15 07:02:08;;;;;;;22.13;14.90;;;31.10;99.90;;;;;;5075576;28;20043;-63
2022/03/15 07:04:35;;;;;;;19.77;15.50;;;31.10;99.90;;;;;;5075541;28;20043;-61
2022/03/15 07:07:01;;;;;;;17.85;14.52;;;31.10;99.90;;;;;;5068794;28;20166;-62
2022/03/15 07:09:28;;;;;;;18.50;15.18;;;31.10;99.90;;;;;;5069151;28;20037;-62
2022/03/15 07:11:55;;;;;;;18.70;15.55;;;31.00;99.90;;;;;;5067674;28;20093;-62
2022/03/15 07:14:22;;;;;;;34.92;23.30;;;31.00;99.90;;;;;;5071766;28;20025;-61
2022/03/15 07:16:48;;;;;;;26.95;21.38;;;31.00;99.90;;;;;;5074531;28;20056;-61
2022/03/15 07:19:15;;;;;;;32.58;22.90;;;31.00;99.90;;;;;;5070936;28;20036;-62
2022/03/15 07:21:42;;;;;;;30.85;22.55;;;31.00;99.90;;;;;;5066611;28;20029;-62
2022/03/15 07:24:08;;;;;;;29.80;19.92;;;31.00;99.90;;;;;;5063979;28;20032;-62
2022/03/15 07:26:35;;;;;;;21.60;17.60;;;31.00;99.90;;;;;;5063032;28;20048;-61
2022/03/15 07:29:02;;;;;;;24.77;18.40;;;31.00;99.90;;;;;;5072105;28;20445;-61
2022/03/15 07:31:29;;;;;;;27.85;17.85;;;31.00;99.90;;;;;;5073579;28;20032;-62
2022/03/15 07:33:56;;;;;;;23.73;17.77;;;31.00;99.90;;;;;;5073679;28;20040;-62
2022/03/15 07:36:23;;;;;;;23.50;15.43;;;30.90;99.90;;;;;;5074221;28;20068;-60
2022/03/15 07:38:50;;;;;;;20.90;14.35;;;30.90;99.90;;;;;;5074037;28;20040;-61
2022/03/15 07:41:16;;;;;;;18.85;14.50;;;30.80;99.90;;;;;;5073418;28;20028;-62
2022/03/15 07:43:44;;;;;;;19.33;14.95;;;30.80;99.90;;;;;;5070411;28;20024;-62
2022/03/15 07:46:10;;;;;;;21.10;15.13;;;30.80;99.90;;;;;;5073528;28;20040;-60
2022/03/15 07:48:37;;;;;;;21.85;15.73;;;30.70;99.90;;;;;;5074230;28;20031;-59
2022/03/15 07:51:04;;;;;;;28.73;17.35;;;30.70;99.90;;;;;;5074065;28;20028;-61
2022/03/15 07:53:30;;;;;;;29.63;19.15;;;30.70;99.90;;;;;;5074001;28;20021;-62
2022/03/15 07:56:01;;;;;;;32.60;21.83;;;30.60;99.90;;;;;;5071130;28;20031;-62
2022/03/15 07:58:29;;;;;;;26.58;18.95;;;30.60;99.90;;;;;;5073655;28;20104;-61
2022/03/15 08:00:57;;;;;;;28.52;18.63;;;30.50;99.90;;;;;;5071261;28;20543;-60
2022/03/15 08:03:24;;;;;;;29.05;18.08;;;30.50;99.90;;;;;;5074104;28;20032;-58
2022/03/15 08:05:51;;;;;;;28.90;17.55;;;30.50;99.90;;;;;;5073449;28;20473;-61
2022/03/15 08:08:18;;;;;;;31.42;22.17;;;30.60;99.90;;;;;;5074063;28;20078;-61
2022/03/15 08:10:44;;;;;;;33.65;24.55;;;30.60;99.90;;;;;;5074021;28;20025;-62
2022/03/15 08:13:11;;;;;;;39.78;24.67;;;30.60;99.90;;;;;;5074241;28;20244;-62
2022/03/15 08:15:38;;;;;;;30.58;22.30;;;30.60;99.90;;;;;;5073910;28;20020;-63
2022/03/15 08:18:06;;;;;;;31.98;23.10;;;30.50;99.90;;;;;;5074118;28;20039;-63
2022/03/15 08:20:33;;;;;;;45.65;28.05;;;30.60;99.90;;;;;;5074199;28;20095;-61
2022/03/15 08:23:01;;;;;;;300.65;190.15;;;30.60;99.90;;;;;;5073934;28;20027;-62
2022/03/15 08:25:28;;;;;;;347.70;242.55;;;30.70;99.90;;;;;;5070475;28;20016;-62
2022/03/15 08:27:56;;;;;;;295.75;189.15;;;30.70;99.90;;;;;;5072909;28;20064;-62
2022/03/15 08:30:24;;;;;;;132.38;92.47;;;30.70;99.90;;;;;;5072896;28;20020;-62
2022/03/15 08:32:50;;;;;;;147.25;84.32;;;30.60;99.90;;;;;;5070356;28;20502;-62
2022/03/15 08:35:17;;;;;;;210.13;122.82;;;30.60;99.90;;;;;;5072435;28;20029;-61
2022/03/15 08:37:50;;;;;;;61.28;37.22;;;30.60;99.90;;;;;;5073017;28;20019;-62
2022/03/15 08:40:18;;;;;;;149.23;78.00;;;30.60;99.90;;;;;;5073215;28;20025;-62
2022/03/15 08:42:45;;;;;;;151.30;87.30;;;30.50;99.90;;;;;;5073040;28;20051;-62
2022/03/15 08:45:11;;;;;;;216.18;113.38;;;30.50;99.90;;;;;;5069138;28;20456;-61
2022/03/15 08:47:40;;;;;;;169.77;98.25;;;30.50;99.90;;;;;;5071505;28;20039;-62
2022/03/15 08:50:09;;;;;;;229.27;120.55;;;30.50;99.90;;;;;;5089651;23;20045;-61
2022/03/15 08:52:36;;;;;;;135.80;67.20;;;30.50;99.90;;;;;;5050050;28;20489;-63
2022/03/15 08:55:03;;;;;;;151.77;91.97;;;30.40;99.90;;;;;;5051131;28;20028;-64
2022/03/15 08:57:30;;;;;;;76.22;45.47;;;30.40;99.90;;;;;;5050007;28;20036;-62
2022/03/15 08:59:58;;;;;;;68.00;40.38;;;30.40;99.90;;;;;;5052579;28;20024;-63
2022/03/15 09:02:25;;;;;;;330.80;222.10;;;30.40;99.90;;;;;;5051365;28;20017;-62
2022/03/15 09:04:51;;;;;;;143.68;94.10;;;30.30;99.90;;;;;;5050658;28;20021;-62
2022/03/15 09:07:18;;;;;;;52.00;32.88;;;30.30;99.90;;;;;;5052935;28;20539;-62
2022/03/15 09:09:44;;;;;;;111.07;78.38;;;30.40;99.90;;;;;;5051052;28;20021;-63
2022/03/15 09:12:11;;;;;;;231.93;148.40;;;30.40;99.90;;;;;;5045857;28;20093;-61
2022/03/15 09:14:38;;;;;;;233.77;157.40;;;30.30;99.90;;;;;;5047269;28;20025;-62
2022/03/15 09:17:06;;;;;;;347.60;289.10;;;30.30;99.90;;;;;;5046301;28;20052;-61
2022/03/15 09:19:33;;;;;;;141.13;88.90;;;30.30;99.90;;;;;;5042859;28;20021;-62
2022/03/15 09:22:02;;;;;;;99.68;59.95;;;30.30;99.90;;;;;;5052474;28;20462;-62
2022/03/15 09:24:32;;;;;;;52.47;32.53;;;30.30;99.90;;;;;;5051052;28;20033;-62
2022/03/15 09:26:59;;;;;;;59.53;37.15;;;30.20;99.90;;;;;;5049923;28;20481;-61
2022/03/15 09:29:26;;;;;;;88.90;56.65;;;30.30;99.90;;;;;;5051759;28;20462;-62
2022/03/15 09:31:52;;;;;;;70.25;44.88;;;30.30;99.90;;;;;;5051951;28;20025;-61
2022/03/15 09:34:21;;;;;;;43.78;32.85;;;30.20;99.90;;;;;;5051935;28;20393;-62
2022/03/15 09:36:47;;;;;;;52.28;29.65;;;30.20;99.90;;;;;;5052940;28;20481;-63
2022/03/15 09:39:14;;;;;;;41.30;25.27;;;30.20;99.90;;;;;;5052951;28;20110;-62
2022/03/15 09:41:41;;;;;;;38.20;25.65;;;30.20;99.90;;;;;;5052506;28;20021;-63
2022/03/15 09:44:09;;;;;;;48.72;25.42;;;30.20;99.90;;;;;;5052970;28;20029;-63
2022/03/15 09:46:43;;;;;;;28.75;23.13;;;30.10;99.90;;;;;;5051768;28;20021;-63
2022/03/15 09:49:10;;;;;;;56.20;35.20;;;30.10;99.90;;;;;;5051569;28;20028;-62
2022/03/15 09:51:37;;;;;;;56.00;35.17;;;30.10;99.90;;;;;;5051244;28;20053;-63
2022/03/15 09:54:06;;;;;;;66.72;42.58;;;30.00;99.90;;;;;;5051777;28;20021;-63
2022/03/15 09:56:38;;;;;;;57.22;32.60;;;30.00;99.90;;;;;;5050445;28;20112;-63
2022/03/15 09:59:17;;;;;;;81.43;34.72;;;29.90;99.90;;;;;;5055402;28;20355;-65
2022/03/15 10:01:45;;;;;;;38.17;26.85;;;29.90;99.90;;;;;;5050649;28;20375;-62
2022/03/15 10:04:12;;;;;;;37.17;25.13;;;29.90;99.90;;;;;;5030336;28;20032;-63
2022/03/15 10:06:39;;;;;;;59.53;43.90;;;29.80;99.90;;;;;;5037940;28;20053;-63
2022/03/15 10:09:08;;;;;;;31.83;23.67;;;29.80;99.90;;;;;;5036915;28;20025;-63
2022/03/15 10:11:35;;;;;;;84.65;54.92;;;29.80;99.90;;;;;;5044520;28;20028;-64
2022/03/15 10:14:04;;;;;;;73.53;47.88;;;29.80;99.90;;;;;;5053520;28;20017;-62
2022/03/15 10:16:33;;;;;;;115.13;65.88;;;29.80;99.90;;;;;;5056337;28;20062;-63
2022/03/15 10:19:00;;;;;;;53.53;36.83;;;29.70;99.90;;;;;;5055408;28;20060;-62
2022/03/15 10:21:44;;;;;;;61.13;42.80;;;29.70;99.90;;;;;;5056169;28;20085;-63
2022/03/15 10:24:14;;;;;;;134.82;88.10;;;29.70;99.90;;;;;;5055166;28;20033;-63
2022/03/15 10:26:41;;;;;;;48.13;34.72;;;29.70;99.90;;;;;;5052838;28;20052;-63
2022/03/15 10:29:11;;;;;;;35.53;23.85;;;29.80;99.90;;;;;;5054974;28;20481;-63
2022/03/15 10:31:38;;;;;;;43.58;28.67;;;29.70;99.90;;;;;;5054171;28;20069;-63
2022/03/15 10:34:07;;;;;;;28.00;22.35;;;29.70;99.90;;;;;;5055271;28;20025;-64
2022/03/15 10:36:43;;;;;;;29.98;20.23;;;29.70;99.90;;;;;;5049614;28;20039;-65
2022/03/15 10:39:13;;;;;;;23.48;19.50;;;29.70;99.90;;;;;;5045279;28;20029;-65
2022/03/15 10:41:55;;;;;;;45.53;35.75;;;29.70;99.90;;;;;;5048408;28;20041;-65
2022/03/15 10:44:27;;;;;;;85.10;69.40;;;29.60;99.90;;;;;;5047175;28;20025;-64
2022/03/15 10:47:00;;;;;;;46.80;35.33;;;29.60;99.90;;;;;;5048275;28;20378;-64
2022/03/15 10:49:27;;;;;;;31.67;24.80;;;29.60;99.90;;;;;;5044136;28;20060;-64
2022/03/15 10:51:54;;;;;;;65.78;44.70;;;29.60;99.90;;;;;;5047957;28;20045;-64
2022/03/15 10:54:26;;;;;;;79.22;51.17;;;29.60;99.90;;;;;;5049832;28;20020;-65
2022/03/15 10:56:58;;;;;;;56.45;42.60;;;29.60;99.90;;;;;;5051585;28;20029;-64
2022/03/15 10:59:25;;;;;;;;;;;29.60;99.90;;;;;;5045097;28;20033;-64
2022/03/15 11:01:52;;;;;;;56.38;36.20;;;29.60;99.90;;;;;;5046564;28;19955;-63
2022/03/15 11:04:20;;;;;;;38.70;29.90;;;29.50;99.90;;;;;;5046793;28;20114;-65
2022/03/15 11:06:49;;;;;;;32.45;25.45;;;29.60;99.90;;;;;;5046041;28;20052;-62
2022/03/15 11:09:24;;;;;;;29.65;23.83;;;29.50;99.90;;;;;;5051518;28;20024;-62
2022/03/15 11:12:05;;;;;;;29.58;22.00;;;29.50;99.90;;;;;;5052124;28;20025;-62
2022/03/15 11:14:47;;;;;;;33.00;23.42;;;29.50;99.90;;;;;;5054024;28;20021;-62
2022/03/15 11:17:15;;;;;;;;;;;29.50;99.90;;;;;;5049766;28;20387;-63
2022/03/15 11:19:46;;;;;;;37.78;30.23;;;29.50;99.90;;;;;;5052628;28;19915;-63
2022/03/15 11:22:15;;;;;;;39.70;25.40;;;29.40;99.90;;;;;;5054005;28;20013;-62
2022/03/15 11:24:50;;;;;;;32.58;24.00;;;29.40;99.90;;;;;;5049988;28;20477;-62
2022/03/15 11:27:18;;;;;;;36.28;24.35;;;29.40;99.90;;;;;;5047834;28;20079;-62
2022/03/15 11:29:45;;;;;;;31.50;23.05;;;29.30;99.90;;;;;;5049925;28;20025;-62
2022/03/15 11:32:14;;;;;;;42.88;32.85;;;29.30;99.90;;;;;;5049092;28;20024;-62
2022/03/15 11:34:42;;;;;;;36.25;29.83;;;29.30;99.90;;;;;;5046325;28;20083;-61
2022/03/15 11:37:11;;;;;;;75.22;56.92;;;29.30;99.90;;;;;;5052538;28;20497;-61
2022/03/15 11:39:39;;;;;;;39.13;29.70;;;29.30;99.90;;;;;;5052733;28;20064;-62
2022/03/15 11:42:12;;;;;;;50.47;36.10;;;29.30;99.90;;;;;;5051223;28;20036;-62
2022/03/15 11:44:46;;;;;;;47.53;35.35;;;29.30;99.90;;;;;;5052612;28;20438;-62
2022/03/15 11:47:24;;;;;;;32.20;24.02;;;29.20;99.90;;;;;;5049065;28;20071;-63
2022/03/15 11:50:04;;;;;;;36.63;27.52;;;29.20;99.90;;;;;;5051178;28;20029;-62
2022/03/15 11:52:42;;;;;;;40.20;27.33;;;29.10;99.90;;;;;;5050375;28;20045;-62
2022/03/15 11:55:21;;;;;;;37.13;27.30;;;29.20;99.90;;;;;;5052670;28;20025;-62
2022/03/15 11:57:59;;;;;;;30.63;22.42;;;29.20;99.90;;;;;;5052158;28;20147;-63
2022/03/15 12:00:31;;;;;;;25.95;19.17;;;29.10;99.90;;;;;;5050616;28;20061;-63
2022/03/15 12:02:59;;;;;;;29.40;23.63;;;29.10;99.90;;;;;;5052928;28;20033;-62
2022/03/15 12:05:27;;;;;;;44.95;34.22;;;29.10;99.90;;;;;;5050733;28;20293;-62
2022/03/15 12:08:15;;;;;;;33.28;23.67;;;29.10;99.90;;;;;;5053165;28;20059;-62
2022/03/15 12:10:52;;;;;;;36.17;23.55;;;29.10;99.90;;;;;;5051150;28;20024;-62
2022/03/15 12:13:20;;;;;;;38.05;23.83;;;29.10;99.90;;;;;;5050484;28;20547;-64
2022/03/15 12:15:50;;;;;;;29.65;22.33;;;29.00;99.90;;;;;;5053380;28;20037;-63
2022/03/15 12:18:28;;;;;;;26.77;21.25;;;29.00;99.90;;;;;;5053168;28;20021;-62
2022/03/15 12:21:08;;;;;;;30.83;22.02;;;29.00;99.90;;;;;;5050289;28;20253;-63
2022/03/15 12:23:42;;;;;;;43.30;32.17;;;29.00;99.90;;;;;;5052067;28;20025;-63
2022/03/15 12:26:31;;;;;;;30.17;21.40;;;29.00;99.90;;;;;;5051693;28;20029;-63
2022/03/15 12:29:12;;;;;;;26.70;19.75;;;28.90;99.90;;;;;;5051359;28;20033;-62
2022/03/15 12:31:42;;;;;;;28.37;19.73;;;28.90;99.90;;;;;;5050145;28;20029;-63
2022/03/15 12:34:18;;;;;;;32.03;22.15;;;28.80;99.90;;;;;;5049576;28;20123;-64
2022/03/15 12:37:00;;;;;;;29.73;21.58;;;28.80;99.90;;;;;;5051611;28;20036;-64
2022/03/15 12:39:30;;;;;;;45.47;34.08;;;28.80;99.90;;;;;;5051553;28;20039;-61